createdAt,value
2022-08-17T00:01:52.018Z,97786.56
2022-08-17T00:04:21.835Z,97790.94
2022-08-17T00:06:50.953Z,97785.28
2022-08-17T00:09:19.580Z,97790.50
2022-08-17T00:12:40.724Z,97787.16
2022-08-17T00:14:40.076Z,97786.41
2022-08-17T00:17:09.629Z,97789.38
2022-08-17T00:19:38.287Z,97784.91
2022-08-17T00:22:31.671Z,97781.75
2022-08-17T00:24:56.054Z,97780.56
2022-08-17T00:27:24.570Z,97783.84
2022-08-17T00:29:54.480Z,97784.69
2022-08-17T00:33:10.817Z,97790.31
2022-08-17T00:35:12.902Z,97785.72
2022-08-17T00:37:41.789Z,97798.41
2022-08-17T00:40:12.702Z,97793.00
2022-08-17T00:42:41.473Z,97797.97
2022-08-17T00:45:13.820Z,97800.00
2022-08-17T00:47:42.373Z,97805.22
2022-08-17T00:50:15.355Z,97799.59
2022-08-17T00:52:49.627Z,97799.81
2022-08-17T00:55:18.360Z,97799.25
2022-08-17T00:57:50.330Z,97802.63
2022-08-17T01:00:26.770Z,97798.84
2022-08-17T01:02:59.235Z,97800.72
2022-08-17T01:05:30.005Z,97799.00
2022-08-17T01:07:59.003Z,97803.38
2022-08-17T01:11:00.144Z,97792.63
2022-08-17T01:13:20.955Z,97793.44
2022-08-17T01:15:53.728Z,97788.66
2022-08-17T01:18:22.228Z,97789.88
2022-08-17T01:20:53.711Z,97792.25
2022-08-17T01:23:25.132Z,97790.41
2022-08-17T01:25:56.549Z,97792.44
2022-08-17T01:28:33.592Z,97791.59
2022-08-17T01:31:14.305Z,97796.53
2022-08-17T01:33:42.826Z,97798.22
2022-08-17T01:36:11.387Z,97808.41
2022-08-17T01:38:41.458Z,97805.50
2022-08-17T01:41:12.640Z,97799.28
2022-08-17T01:43:44.693Z,97808.31
2022-08-17T01:46:16.674Z,97802.06
2022-08-17T01:48:47.595Z,97805.84
2022-08-17T01:51:16.687Z,97802.13
2022-08-17T01:53:50.057Z,97811.16
2022-08-17T01:56:22.468Z,97801.22
2022-08-17T01:58:51.008Z,97800.00
2022-08-17T02:01:21.489Z,97806.59
2022-08-17T02:03:59.162Z,97803.69
2022-08-17T02:06:31.641Z,97795.84
2022-08-17T02:09:25.144Z,97794.78
2022-08-17T02:11:54.653Z,97794.97
2022-08-17T02:14:23.437Z,97798.34
2022-08-17T02:16:52.107Z,97803.00
2022-08-17T02:19:21.989Z,97809.66
2022-08-17T02:21:54.239Z,97802.63
2022-08-17T02:24:58.026Z,97802.19
2022-08-17T02:27:15.424Z,97802.41
2022-08-17T02:29:43.866Z,97804.28
2022-08-17T02:32:20.861Z,97815.09
2022-08-17T02:34:57.286Z,97803.25
2022-08-17T02:37:26.228Z,97809.69
2022-08-17T02:39:57.156Z,97811.31
2022-08-17T02:42:28.926Z,97808.41
2022-08-17T02:44:57.412Z,97800.56
2022-08-17T02:47:26.882Z,97809.50
2022-08-17T02:49:55.881Z,97807.84
2022-08-17T02:52:42.907Z,97808.84
2022-08-17T02:55:15.925Z,97809.22
2022-08-17T02:57:44.502Z,97806.97
2022-08-17T03:00:17.388Z,97810.34
2022-08-17T03:02:46.287Z,97809.09
2022-08-17T03:05:17.015Z,97807.19
2022-08-17T03:07:45.559Z,97800.97
2022-08-17T03:10:16.490Z,97807.19
2022-08-17T03:12:45.243Z,97804.19
2022-08-17T03:15:16.819Z,97810.50
2022-08-17T03:17:45.730Z,97821.59
2022-08-17T03:20:14.485Z,97819.69
2022-08-17T03:22:47.820Z,97819.47
2022-08-17T03:25:26.152Z,97824.28
2022-08-17T03:27:55.122Z,97823.66
2022-08-17T03:30:23.805Z,97814.94
2022-08-17T03:32:54.721Z,97828.44
2022-08-17T03:35:26.320Z,97827.19
2022-08-17T03:38:00.514Z,97829.69
2022-08-17T03:40:34.779Z,97835.69
2022-08-17T03:43:19.725Z,97840.06
2022-08-17T03:46:27.312Z,97829.06
2022-08-17T03:49:12.895Z,97831.13
2022-08-17T03:51:58.857Z,97832.59
2022-08-17T03:54:44.938Z,97837.16
2022-08-17T03:57:14.771Z,97839.69
2022-08-17T03:59:43.194Z,97846.69
2022-08-17T04:02:17.214Z,97839.63
2022-08-17T04:04:45.690Z,97845.19
2022-08-17T04:07:14.184Z,97843.97
2022-08-17T04:09:43.979Z,97849.00
2022-08-17T04:12:14.014Z,97851.44
2022-08-17T04:14:53.637Z,97851.63
2022-08-17T04:17:26.466Z,97861.59
2022-08-17T04:19:55.436Z,97851.75
2022-08-17T04:22:32.508Z,97854.13
2022-08-17T04:25:11.013Z,97854.97
2022-08-17T04:27:41.052Z,97863.88
2022-08-17T04:30:11.438Z,97864.31
2022-08-17T04:33:05.270Z,97859.31
2022-08-17T04:35:37.878Z,97861.25
2022-08-17T04:38:06.541Z,97864.63
2022-08-17T04:40:52.830Z,97873.34
2022-08-17T04:43:24.645Z,97874.56
2022-08-17T04:45:56.253Z,97866.25
2022-08-17T04:48:35.822Z,97873.72
2022-08-17T04:51:09.907Z,97876.56
2022-08-17T04:53:40.395Z,97876.84
2022-08-17T04:56:16.045Z,97872.94
2022-08-17T04:58:49.831Z,97870.81
2022-08-17T05:01:23.236Z,97874.16
2022-08-17T05:03:53.570Z,97867.84
2022-08-17T05:06:22.126Z,97869.47
2022-08-17T05:08:50.885Z,97873.25
2022-08-17T05:11:19.412Z,97867.25
2022-08-17T05:13:50.463Z,97874.09
2022-08-17T05:16:22.099Z,97877.66
2022-08-17T05:18:50.655Z,97869.75
2022-08-17T05:21:19.373Z,97876.66
2022-08-17T05:23:54.835Z,97884.56
2022-08-17T05:26:26.845Z,97890.38
2022-08-17T05:29:00.618Z,97887.84
2022-08-17T05:31:32.061Z,97890.78
2022-08-17T05:34:00.573Z,97888.31
2022-08-17T05:36:43.212Z,97900.19
2022-08-17T05:39:16.398Z,97902.81
2022-08-17T05:41:48.578Z,97893.91
2022-08-17T05:44:18.632Z,97892.44
2022-08-17T05:46:50.222Z,97896.59
2022-08-17T05:49:20.639Z,97892.41
2022-08-17T05:52:11.741Z,97897.03
2022-08-17T05:54:48.636Z,97897.03
2022-08-17T05:57:33.593Z,97889.31
2022-08-17T06:00:11.361Z,97894.72
2022-08-17T06:02:59.154Z,97892.66
2022-08-17T06:05:41.498Z,97893.91
2022-08-17T06:08:14.175Z,97887.25
2022-08-17T06:10:46.597Z,97889.97
2022-08-17T06:13:20.170Z,97882.25
2022-08-17T06:15:56.430Z,97888.72
2022-08-17T06:18:27.062Z,97883.31
2022-08-17T06:20:58.823Z,97882.69
2022-08-17T06:23:31.782Z,97887.66
2022-08-17T06:26:05.291Z,97882.88
2022-08-17T06:28:38.299Z,97885.19
2022-08-17T06:31:13.575Z,97886.84
2022-08-17T06:33:46.466Z,97885.00
2022-08-17T06:36:29.390Z,97887.88
2022-08-17T06:39:05.405Z,97885.78
2022-08-17T06:41:39.176Z,97883.09
2022-08-17T06:44:43.179Z,97883.75
2022-08-17T06:47:10.561Z,97887.25
2022-08-17T06:49:44.429Z,97892.06
2022-08-17T06:52:37.130Z,97883.53
2022-08-17T06:55:18.009Z,97889.97
2022-08-17T06:57:54.895Z,97888.75
2022-08-17T07:00:25.147Z,97890.59
2022-08-17T07:02:58.082Z,97893.91
2022-08-17T07:05:33.372Z,97902.44
2022-08-17T07:08:05.048Z,97898.28
2022-08-17T07:10:40.278Z,97896.63
2022-08-17T07:13:26.537Z,97902.00
2022-08-17T07:15:58.639Z,97899.94
2022-08-17T07:18:28.884Z,97907.84
2022-08-17T07:21:01.220Z,97901.41
2022-08-17T07:23:38.737Z,97904.53
2022-08-17T07:26:07.669Z,97905.75
2022-08-17T07:28:36.612Z,97898.69
2022-08-17T07:31:05.127Z,97900.78
2022-08-17T07:33:39.433Z,97902.88
2022-08-17T07:36:29.598Z,97896.19
2022-08-17T07:38:59.058Z,97899.09
2022-08-17T07:41:27.886Z,97899.06
2022-08-17T07:44:17.526Z,97906.56
2022-08-17T07:47:22.956Z,97903.44
2022-08-17T07:49:53.334Z,97913.22
2022-08-17T07:52:50.251Z,97906.34
2022-08-17T07:55:28.016Z,97913.22
2022-08-17T07:57:57.486Z,97912.41
2022-08-17T08:00:32.284Z,97909.09
2022-08-17T08:03:06.490Z,97911.59
2022-08-17T08:05:49.336Z,97914.47
2022-08-17T08:08:32.084Z,97918.25
2022-08-17T08:11:05.411Z,97916.56
2022-08-17T08:13:33.998Z,97916.97
2022-08-17T08:16:24.608Z,97922.25
2022-08-17T08:18:57.275Z,97916.63
2022-08-17T08:21:38.094Z,97924.41
2022-08-17T08:24:23.098Z,97916.53
2022-08-17T08:26:57.781Z,97918.00
2022-08-17T08:29:37.310Z,97910.75
2022-08-17T08:32:10.633Z,97905.88
2022-08-17T08:35:02.743Z,97912.81
2022-08-17T08:37:43.126Z,97907.41
2022-08-17T08:40:35.790Z,97904.94
2022-08-17T08:43:11.299Z,97908.22
2022-08-17T08:45:47.049Z,97909.91
2022-08-17T08:48:52.933Z,97905.13
2022-08-17T08:51:15.744Z,97911.34
2022-08-17T08:53:50.788Z,97912.38
2022-08-17T08:56:24.758Z,97917.78
2022-08-17T08:58:57.273Z,97912.34
2022-08-17T09:01:29.476Z,97922.75
2022-08-17T09:04:23.277Z,97912.38
2022-08-17T09:07:01.994Z,97916.97
2022-08-17T09:09:40.048Z,97909.06
2022-08-17T09:12:14.039Z,97908.22
2022-08-17T09:14:47.018Z,97916.53
2022-08-17T09:17:19.460Z,97923.00
2022-08-17T09:19:50.674Z,97925.31
2022-08-17T09:22:34.959Z,97924.25
2022-08-17T09:25:11.231Z,97920.09
2022-08-17T09:27:50.042Z,97926.53
2022-08-17T09:30:19.577Z,97916.09
2022-08-17T09:32:55.437Z,97926.06
2022-08-17T09:35:32.758Z,97931.66
2022-08-17T09:38:12.515Z,97921.28
2022-08-17T09:40:48.226Z,97921.09
2022-08-17T09:43:30.678Z,97918.78
2022-08-17T09:46:03.008Z,97918.38
2022-08-17T09:48:34.971Z,97914.00
2022-08-17T09:51:08.112Z,97919.59
2022-08-17T09:53:38.081Z,97909.41
2022-08-17T09:56:30.268Z,97910.66
2022-08-17T09:59:22.226Z,97911.47
2022-08-17T10:01:56.091Z,97903.75
2022-08-17T10:04:40.968Z,97897.34
2022-08-17T10:07:16.512Z,97892.75
2022-08-17T10:09:55.776Z,97898.56
2022-08-17T10:12:36.735Z,97893.56
2022-08-17T10:15:23.515Z,97903.75
2022-08-17T10:18:18.978Z,97900.44
2022-08-17T10:21:16.281Z,97903.56
2022-08-17T10:24:02.219Z,97908.53
2022-08-17T10:26:55.681Z,97908.53
2022-08-17T10:29:25.079Z,97910.22
2022-08-17T10:32:00.933Z,97908.34
2022-08-17T10:35:00.090Z,97909.78
2022-08-17T10:37:52.276Z,97908.97
2022-08-17T10:40:28.685Z,97907.31
2022-08-17T10:43:00.446Z,97908.53
2022-08-17T10:45:35.045Z,97912.25
2022-08-17T10:48:30.841Z,97911.78
2022-08-17T10:51:02.736Z,97903.13
2022-08-17T10:53:58.101Z,97910.75
2022-08-17T10:56:50.482Z,97905.94
2022-08-17T10:59:55.512Z,97904.19
2022-08-17T11:02:28.204Z,97896.38
2022-08-17T11:05:34.488Z,97899.72
2022-08-17T11:08:31.186Z,97892.84
2022-08-17T11:11:14.205Z,97908.28
2022-08-17T11:13:48.741Z,97901.28
2022-08-17T11:16:45.793Z,97905.31
2022-08-17T11:19:45.180Z,97912.13
2022-08-17T11:22:47.436Z,97898.13
2022-08-17T11:25:17.925Z,97905.81
2022-08-17T11:27:53.856Z,97909.78
2022-08-17T11:30:48.604Z,97912.38
2022-08-17T11:34:06.445Z,97911.16
2022-08-17T11:37:16.331Z,97910.91
2022-08-17T11:40:33.942Z,97907.59
2022-08-17T11:43:55.618Z,97904.31
2022-08-17T11:46:53.990Z,97901.34
2022-08-17T11:49:57.835Z,97898.84
2022-08-17T11:52:42.250Z,97891.34
2022-08-17T11:56:02.616Z,97885.56
2022-08-17T11:58:37.568Z,97882.22
2022-08-17T12:01:07.492Z,97886.56
2022-08-17T12:03:55.421Z,97873.44
2022-08-17T12:06:46.074Z,97880.91
2022-08-17T12:09:19.631Z,97879.91
2022-08-17T12:12:01.607Z,97880.91
2022-08-17T12:15:08.353Z,97882.41
2022-08-17T12:17:41.207Z,97872.16
2022-08-17T12:20:19.575Z,97881.53
2022-08-17T12:22:54.945Z,97871.31
2022-08-17T12:25:32.978Z,97875.84
2022-08-17T12:28:06.913Z,97866.25
2022-08-17T12:30:36.560Z,97863.38
2022-08-17T12:33:10.986Z,97870.44
2022-08-17T12:35:40.090Z,97868.28
2022-08-17T12:38:26.708Z,97871.69
2022-08-17T12:41:21.709Z,97879.13
2022-08-17T12:44:01.693Z,97883.69
2022-08-17T12:46:33.691Z,97877.22
2022-08-17T12:49:16.870Z,97886.22
2022-08-17T12:51:46.680Z,97880.56
2022-08-17T12:54:33.691Z,97881.66
2022-08-17T12:57:08.769Z,97872.25
2022-08-17T12:59:43.256Z,97879.56
2022-08-17T13:02:23.585Z,97882.91
2022-08-17T13:04:52.037Z,97884.19
2022-08-17T13:07:34.183Z,97878.34
2022-08-17T13:10:02.872Z,97884.59
2022-08-17T13:12:34.990Z,97870.81
2022-08-17T13:15:03.468Z,97871.88
2022-08-17T13:17:35.909Z,97860.16
2022-08-17T13:20:06.802Z,97868.34
2022-08-17T13:22:35.362Z,97869.78
2022-08-17T13:25:08.560Z,97873.69
2022-08-17T13:27:38.515Z,97863.69
2022-08-17T13:30:11.959Z,97867.84
2022-08-17T13:32:44.107Z,97869.97
2022-08-17T13:35:44.236Z,97879.84
2022-08-17T13:38:36.081Z,97874.47
2022-08-17T13:41:06.422Z,97859.31
2022-08-17T13:43:49.678Z,97861.63
2022-08-17T13:46:21.290Z,97863.28
2022-08-17T13:49:00.452Z,97857.44
2022-08-17T13:51:37.289Z,97852.63
2022-08-17T13:54:27.092Z,97856.50
2022-08-17T13:57:01.645Z,97863.53
2022-08-17T13:59:55.029Z,97869.03
2022-08-17T14:02:26.631Z,97861.28
2022-08-17T14:04:58.433Z,97864.38
2022-08-17T14:07:34.131Z,97871.00
2022-08-17T14:10:10.222Z,97872.72
2022-08-17T14:12:39.938Z,97869.56
2022-08-17T14:15:11.808Z,97865.97
2022-08-17T14:17:40.264Z,97861.56
2022-08-17T14:20:11.863Z,97867.84
2022-08-17T14:22:41.690Z,97869.06
2022-08-17T14:25:12.010Z,97871.59
2022-08-17T14:27:41.772Z,97860.56
2022-08-17T14:30:24.573Z,97860.09
2022-08-17T14:32:53.505Z,97866.75
2022-08-17T14:35:23.301Z,97859.47
2022-08-17T14:37:53.128Z,97860.44
2022-08-17T14:40:24.660Z,97863.22
2022-08-17T14:42:55.289Z,97873.78
2022-08-17T14:45:29.570Z,97869.50
2022-08-17T14:48:04.288Z,97870.97
2022-08-17T14:50:35.696Z,97869.91
2022-08-17T14:53:05.509Z,97863.75
2022-08-17T14:55:34.412Z,97861.66
2022-08-17T14:58:04.042Z,97868.81
2022-08-17T15:00:34.099Z,97863.47
2022-08-17T15:03:02.704Z,97866.03
2022-08-17T15:05:33.688Z,97867.47
2022-08-17T15:08:02.764Z,97877.72
2022-08-17T15:10:31.565Z,97869.88
2022-08-17T15:13:00.417Z,97871.59
2022-08-17T15:15:29.395Z,97868.16
2022-08-17T15:17:59.879Z,97865.00
2022-08-17T15:20:31.020Z,97853.63
2022-08-17T15:22:59.584Z,97867.34
2022-08-17T15:25:29.801Z,97864.22
2022-08-17T15:27:58.411Z,97862.97
2022-08-17T15:30:27.260Z,97872.16
2022-08-17T15:32:57.167Z,97867.97
2022-08-17T15:35:29.481Z,97867.16
2022-08-17T15:38:08.108Z,97860.09
2022-08-17T15:40:40.987Z,97852.19
2022-08-17T15:43:11.509Z,97860.09
2022-08-17T15:45:40.383Z,97861.91
2022-08-17T15:48:09.030Z,97856.78
2022-08-17T15:50:38.818Z,97857.31
2022-08-17T15:53:07.219Z,97859.78
2022-08-17T15:55:36.759Z,97848.34
2022-08-17T15:58:05.428Z,97855.13
2022-08-17T16:00:43.508Z,97855.88
2022-08-17T16:04:01.359Z,97850.91
2022-08-17T16:06:11.872Z,97854.06
2022-08-17T16:08:43.493Z,97852.78
2022-08-17T16:11:12.524Z,97853.75
2022-08-17T16:13:41.664Z,97854.06
2022-08-17T16:16:16.071Z,97859.72
2022-08-17T16:18:44.693Z,97864.19
2022-08-17T16:21:27.762Z,97864.19
2022-08-17T16:23:58.427Z,97864.47
2022-08-17T16:26:26.991Z,97865.38
2022-08-17T16:28:56.032Z,97862.34
2022-08-17T16:31:24.882Z,97865.75
2022-08-17T16:34:08.992Z,97857.75
2022-08-17T16:36:55.744Z,97873.63
2022-08-17T16:39:27.188Z,97866.88
2022-08-17T16:41:56.239Z,97868.63
2022-08-17T16:44:26.012Z,97873.63
2022-08-17T16:46:54.831Z,97871.16
2022-08-17T16:49:23.366Z,97866.94
2022-08-17T16:52:10.093Z,97873.94
2022-08-17T16:54:40.645Z,97874.66
2022-08-17T16:57:09.533Z,97869.22
2022-08-17T16:59:40.994Z,97870.44
2022-08-17T17:02:14.598Z,97869.06
2022-08-17T17:04:50.256Z,97884.34
2022-08-17T17:08:00.915Z,97879.59
2022-08-17T17:10:34.317Z,97880.28
2022-08-17T17:13:04.558Z,97881.72
2022-08-17T17:15:53.612Z,97889.91
2022-08-17T17:18:24.317Z,97892.44
2022-08-17T17:20:57.956Z,97890.97
2022-08-17T17:23:46.117Z,97894.59
2022-08-17T17:26:28.885Z,97892.00
2022-08-17T17:29:12.070Z,97901.81
2022-08-17T17:31:45.396Z,97898.03
2022-08-17T17:34:16.098Z,97904.81
2022-08-17T17:36:48.164Z,97896.06
2022-08-17T17:39:20.260Z,97905.09
2022-08-17T17:41:51.813Z,97910.94
2022-08-17T17:44:25.658Z,97908.22
2022-08-17T17:46:59.526Z,97914.13
2022-08-17T17:49:29.139Z,97916.03
2022-08-17T17:52:11.108Z,97912.69
2022-08-17T17:54:57.130Z,97919.94
2022-08-17T17:57:33.129Z,97923.63
2022-08-17T18:00:08.012Z,97923.88
2022-08-17T18:02:51.417Z,97927.03
2022-08-17T18:05:36.365Z,97927.88
2022-08-17T18:08:12.597Z,97921.66
2022-08-17T18:10:49.163Z,97932.09
2022-08-17T18:13:22.938Z,97934.00
2022-08-17T18:15:55.445Z,97927.50
2022-08-17T18:18:37.866Z,97934.19
2022-08-17T18:21:15.674Z,97936.09
2022-08-17T18:23:57.403Z,97936.28
2022-08-17T18:26:44.700Z,97936.28
2022-08-17T18:29:27.067Z,97937.56
2022-08-17T18:32:38.552Z,97944.22
2022-08-17T18:35:32.681Z,97940.06
2022-08-17T18:38:24.129Z,97944.59
2022-08-17T18:41:05.643Z,97945.00
2022-08-17T18:43:53.142Z,97951.84
2022-08-17T18:46:29.247Z,97955.84
2022-08-17T18:49:00.044Z,97958.75
2022-08-17T18:51:40.619Z,97958.56
2022-08-17T18:54:18.541Z,97959.63
2022-08-17T18:56:54.138Z,97964.66
2022-08-17T18:59:39.435Z,97966.97
2022-08-17T19:02:45.220Z,97967.41
2022-08-17T19:05:13.601Z,97969.50
2022-08-17T19:07:43.789Z,97978.47
2022-08-17T19:10:20.418Z,97973.28
2022-08-17T19:12:53.082Z,97980.13
2022-08-17T19:15:28.064Z,97989.53
2022-08-17T19:18:00.502Z,97979.91
2022-08-17T19:20:33.319Z,97981.41
2022-08-17T19:23:08.045Z,97985.56
2022-08-17T19:25:40.777Z,97991.41
2022-08-17T19:28:21.815Z,97992.16
2022-08-17T19:30:57.793Z,97995.44
2022-08-17T19:33:26.696Z,97997.13
2022-08-17T19:36:04.600Z,97986.56
2022-08-17T19:38:43.545Z,97983.78
2022-08-17T19:41:20.613Z,97996.50
2022-08-17T19:44:07.920Z,98002.56
2022-08-17T19:46:48.530Z,98001.47
2022-08-17T19:49:33.503Z,98000.28
2022-08-17T19:52:24.195Z,97995.88
2022-08-17T19:54:56.393Z,97996.94
2022-08-17T19:57:33.124Z,97991.72
2022-08-17T20:00:05.831Z,97986.91
2022-08-17T20:02:38.811Z,97982.97
2022-08-17T20:05:09.842Z,97982.97
2022-08-17T20:07:44.735Z,97985.06
2022-08-17T20:10:17.271Z,97991.47
2022-08-17T20:12:45.905Z,97983.56
2022-08-17T20:15:18.981Z,97983.59
2022-08-17T20:17:48.935Z,97984.88
2022-08-17T20:20:25.959Z,97979.63
2022-08-17T20:22:59.638Z,97973.84
2022-08-17T20:25:34.699Z,97990.91
2022-08-17T20:28:06.840Z,97985.06
2022-08-17T20:30:41.010Z,97995.13
2022-08-17T20:33:24.846Z,97993.88
2022-08-17T20:36:17.291Z,97986.38
2022-08-17T20:38:50.406Z,97989.25
2022-08-17T20:41:21.019Z,97989.69
2022-08-17T20:44:03.031Z,97982.78
2022-08-17T20:46:53.218Z,97980.53
2022-08-17T20:49:27.841Z,97977.59
2022-08-17T20:52:02.527Z,97985.94
2022-08-17T20:54:48.929Z,97987.81
2022-08-17T20:57:48.872Z,97988.25
2022-08-17T21:00:47.793Z,97978.06
2022-08-17T21:03:50.242Z,97982.03
2022-08-17T21:06:26.123Z,97973.09
2022-08-17T21:08:59.088Z,97978.13
2022-08-17T21:12:04.504Z,97991.06
2022-08-17T21:15:00.909Z,97984.38
2022-08-17T21:17:41.934Z,97984.97
2022-08-17T21:20:32.258Z,97984.81
2022-08-17T21:23:40.476Z,97983.94
2022-08-17T21:26:28.103Z,97984.19
2022-08-17T21:29:30.014Z,97990.56
2022-08-17T21:32:24.481Z,97990.44
2022-08-17T21:35:30.143Z,97987.28
2022-08-17T21:38:04.454Z,97985.22
2022-08-17T21:40:34.691Z,97980.22
2022-08-17T21:43:23.701Z,97980.88
2022-08-17T21:45:59.868Z,97985.84
2022-08-17T21:48:29.402Z,97977.34
2022-08-17T21:51:01.945Z,97978.16
2022-08-17T21:53:37.904Z,97967.31
2022-08-17T21:56:08.656Z,97961.69
2022-08-17T21:58:40.661Z,97969.59
2022-08-17T22:01:21.888Z,97966.88
2022-08-17T22:04:05.652Z,97956.50
2022-08-17T22:06:39.278Z,97956.50
2022-08-17T22:09:19.379Z,97954.44
2022-08-17T22:12:03.961Z,97955.69
2022-08-17T22:14:52.466Z,97960.53
2022-08-17T22:17:24.995Z,97962.38
2022-08-17T22:19:56.435Z,97957.56
2022-08-17T22:22:34.558Z,97955.88
2022-08-17T22:25:05.296Z,97951.28
2022-08-17T22:27:52.062Z,97948.56
2022-08-17T22:30:33.228Z,97946.03
2022-08-17T22:33:03.063Z,97939.88
2022-08-17T22:35:40.237Z,97932.31
2022-08-17T22:38:32.260Z,97924.81
2022-08-17T22:41:27.732Z,97921.56
2022-08-17T22:43:57.633Z,97926.97
2022-08-17T22:46:26.845Z,97920.97
2022-08-17T22:48:57.994Z,97935.75
2022-08-17T22:51:29.957Z,97939.28
2022-08-17T22:54:18.588Z,97934.09
2022-08-17T22:57:11.549Z,97938.66
2022-08-17T22:59:48.193Z,97951.38
2022-08-17T23:02:25.594Z,97954.28
2022-08-17T23:04:57.461Z,97957.84
2022-08-17T23:07:26.153Z,97959.50
2022-08-17T23:10:19.841Z,97977.63
2022-08-17T23:12:48.503Z,97971.97
2022-08-17T23:15:19.712Z,97973.84
2022-08-17T23:17:48.304Z,97981.97
2022-08-17T23:20:17.661Z,97990.09
2022-08-17T23:22:51.418Z,97986.56
2022-08-17T23:25:27.010Z,97983.66
2022-08-17T23:27:55.877Z,97990.72
2022-08-17T23:30:30.862Z,97989.91
2022-08-17T23:33:01.389Z,97988.22
2022-08-17T23:35:40.563Z,97990.09
2022-08-17T23:38:10.553Z,97990.34
2022-08-17T23:40:39.263Z,97989.47
2022-08-17T23:43:17.580Z,97988.66
2022-08-17T23:45:57.655Z,97993.25
2022-08-17T23:48:27.819Z,97995.94
2022-08-17T23:51:04.928Z,97983.47
2022-08-17T23:53:35.093Z,97990.78
2022-08-17T23:56:09.822Z,97990.53
2022-08-17T23:58:40.134Z,97982.66
